sensor_id;sensor_type;location;lat;lon;timestamp;temperature;humidity
60293;DHT22;52402;52.670;6.750;2023-05-19T00:00:17;7.90;99.90
60293;DHT22;52402;52.670;6.750;2023-05-19T00:02:43;7.80;99.90
60293;DHT22;52402;52.670;6.750;2023-05-19T00:05:10;7.80;99.90
60293;DHT22;52402;52.670;6.750;2023-05-19T00:07:37;7.80;99.90
60293;DHT22;52402;52.670;6.750;2023-05-19T00:10:04;7.70;99.90
60293;DHT22;52402;52.670;6.750;2023-05-19T00:12:30;7.70;99.90
60293;DHT22;52402;52.670;6.750;2023-05-19T00:14:56;7.70;99.90
60293;DHT22;52402;52.670;6.750;2023-05-19T00:17:22;7.70;99.90
60293;DHT22;52402;52.670;6.750;2023-05-19T00:19:48;7.70;99.90
60293;DHT22;52402;52.670;6.750;2023-05-19T00:22:14;7.70;99.90
60293;DHT22;52402;52.670;6.750;2023-05-19T00:24:40;7.70;99.90
60293;DHT22;52402;52.670;6.750;2023-05-19T00:27:12;7.70;99.90
60293;DHT22;52402;52.670;6.750;2023-05-19T00:29:38;7.60;99.90
60293;DHT22;52402;52.670;6.750;2023-05-19T00:32:04;7.50;99.90
60293;DHT22;52402;52.670;6.750;2023-05-19T00:34:29;7.50;99.90
60293;DHT22;52402;52.670;6.750;2023-05-19T00:40:23;7.50;99.90
60293;DHT22;52402;52.670;6.750;2023-05-19T00:42:58;7.50;99.90
60293;DHT22;52402;52.670;6.750;2023-05-19T00:45:24;7.50;99.90
60293;DHT22;52402;52.670;6.750;2023-05-19T00:47:50;7.40;99.90
60293;DHT22;52402;52.670;6.750;2023-05-19T00:50:16;7.40;99.90
60293;DHT22;52402;52.670;6.750;2023-05-19T00:52:41;7.40;99.90
60293;DHT22;52402;52.670;6.750;2023-05-19T00:55:07;7.40;99.90
60293;DHT22;52402;52.670;6.750;2023-05-19T00:57:34;7.30;99.90
60293;DHT22;52402;52.670;6.750;2023-05-19T01:00:06;7.30;99.90
60293;DHT22;52402;52.670;6.750;2023-05-19T01:02:32;7.30;99.90
60293;DHT22;52402;52.670;6.750;2023-05-19T01:04:58;7.20;99.90
60293;DHT22;52402;52.670;6.750;2023-05-19T01:07:24;7.20;99.90
60293;DHT22;52402;52.670;6.750;2023-05-19T01:09:50;7.20;99.90
60293;DHT22;52402;52.670;6.750;2023-05-19T01:12:16;7.20;99.90
60293;DHT22;52402;52.670;6.750;2023-05-19T01:14:49;7.20;99.90
60293;DHT22;52402;52.670;6.750;2023-05-19T01:20:27;7.20;99.90
60293;DHT22;52402;52.670;6.750;2023-05-19T01:31:12;7.20;99.90
60293;DHT22;52402;52.670;6.750;2023-05-19T01:33:40;7.20;99.90
60293;DHT22;52402;52.670;6.750;2023-05-19T01:36:08;7.10;99.90
60293;DHT22;52402;52.670;6.750;2023-05-19T01:38:37;7.10;99.90
60293;DHT22;52402;52.670;6.750;2023-05-19T01:41:05;7.10;99.90
60293;DHT22;52402;52.670;6.750;2023-05-19T01:43:32;7.10;99.90
60293;DHT22;52402;52.670;6.750;2023-05-19T01:46:00;7.10;99.90
60293;DHT22;52402;52.670;6.750;2023-05-19T01:48:30;7.10;99.90
60293;DHT22;52402;52.670;6.750;2023-05-19T01:50:59;7.00;99.90
60293;DHT22;52402;52.670;6.750;2023-05-19T01:53:28;7.00;99.90
60293;DHT22;52402;52.670;6.750;2023-05-19T01:55:55;7.00;99.90
60293;DHT22;52402;52.670;6.750;2023-05-19T01:58:31;7.00;99.90
60293;DHT22;52402;52.670;6.750;2023-05-19T02:07:00;7.00;99.90
60293;DHT22;52402;52.670;6.750;2023-05-19T02:12:43;7.00;99.90
60293;DHT22;52402;52.670;6.750;2023-05-19T02:15:14;7.00;99.90
60293;DHT22;52402;52.670;6.750;2023-05-19T02:17:43;7.00;99.90
60293;DHT22;52402;52.670;6.750;2023-05-19T02:20:14;7.00;99.90
60293;DHT22;52402;52.670;6.750;2023-05-19T02:22:40;6.90;99.90
60293;DHT22;52402;52.670;6.750;2023-05-19T02:25:07;6.90;99.90
60293;DHT22;52402;52.670;6.750;2023-05-19T02:27:36;6.90;99.90
60293;DHT22;52402;52.670;6.750;2023-05-19T02:30:04;6.80;99.90
60293;DHT22;52402;52.670;6.750;2023-05-19T02:32:31;6.80;99.90
60293;DHT22;52402;52.670;6.750;2023-05-19T02:34:57;6.80;99.90
60293;DHT22;52402;52.670;6.750;2023-05-19T02:37:23;6.70;99.90
60293;DHT22;52402;52.670;6.750;2023-05-19T02:39:50;6.70;99.90
60293;DHT22;52402;52.670;6.750;2023-05-19T02:42:16;6.70;99.90
60293;DHT22;52402;52.670;6.750;2023-05-19T02:44:42;6.70;99.90
60293;DHT22;52402;52.670;6.750;2023-05-19T02:47:08;6.70;99.90
60293;DHT22;52402;52.670;6.750;2023-05-19T02:49:34;6.60;99.90
60293;DHT22;52402;52.670;6.750;2023-05-19T02:52:20;6.60;99.90
60293;DHT22;52402;52.670;6.750;2023-05-19T02:54:46;6.50;99.90
60293;DHT22;52402;52.670;6.750;2023-05-19T02:57:11;6.50;99.90
60293;DHT22;52402;52.670;6.750;2023-05-19T02:59:37;6.50;99.90
60293;DHT22;52402;52.670;6.750;2023-05-19T03:02:02;6.40;99.90
60293;DHT22;52402;52.670;6.750;2023-05-19T03:04:31;6.40;99.90
60293;DHT22;52402;52.670;6.750;2023-05-19T03:06:57;6.40;99.90
60293;DHT22;52402;52.670;6.750;2023-05-19T03:09:22;6.40;99.90
60293;DHT22;52402;52.670;6.750;2023-05-19T03:11:48;6.30;99.90
60293;DHT22;52402;52.670;6.750;2023-05-19T03:14:13;6.30;99.90
60293;DHT22;52402;52.670;6.750;2023-05-19T03:16:39;6.30;99.90
60293;DHT22;52402;52.670;6.750;2023-05-19T03:19:07;6.30;99.90
60293;DHT22;52402;52.670;6.750;2023-05-19T03:21:33;6.30;99.90
60293;DHT22;52402;52.670;6.750;2023-05-19T03:23:59;6.30;99.90
60293;DHT22;52402;52.670;6.750;2023-05-19T03:26:28;6.30;99.90
60293;DHT22;52402;52.670;6.750;2023-05-19T03:28:56;6.20;99.90
60293;DHT22;52402;52.670;6.750;2023-05-19T03:31:25;6.10;99.90
60293;DHT22;52402;52.670;6.750;2023-05-19T03:33:51;6.10;99.90
60293;DHT22;52402;52.670;6.750;2023-05-19T03:36:16;6.10;99.90
60293;DHT22;52402;52.670;6.750;2023-05-19T03:38:42;6.00;99.90
60293;DHT22;52402;52.670;6.750;2023-05-19T03:41:07;6.00;99.90
60293;DHT22;52402;52.670;6.750;2023-05-19T03:43:33;6.00;99.90
60293;DHT22;52402;52.670;6.750;2023-05-19T03:45:59;5.90;99.90
60293;DHT22;52402;52.670;6.750;2023-05-19T03:48:25;5.80;99.90
60293;DHT22;52402;52.670;6.750;2023-05-19T03:50:53;5.80;99.90
60293;DHT22;52402;52.670;6.750;2023-05-19T03:53:19;5.80;99.90
60293;DHT22;52402;52.670;6.750;2023-05-19T03:55:45;5.80;99.90
60293;DHT22;52402;52.670;6.750;2023-05-19T03:58:12;5.90;99.90
60293;DHT22;52402;52.670;6.750;2023-05-19T04:00:39;5.80;99.90
60293;DHT22;52402;52.670;6.750;2023-05-19T04:03:05;5.80;99.90
60293;DHT22;52402;52.670;6.750;2023-05-19T04:05:30;5.80;99.90
60293;DHT22;52402;52.670;6.750;2023-05-19T04:08:05;5.80;99.90
60293;DHT22;52402;52.670;6.750;2023-05-19T04:10:30;5.80;99.90
60293;DHT22;52402;52.670;6.750;2023-05-19T04:12:56;5.80;99.90
60293;DHT22;52402;52.670;6.750;2023-05-19T04:15:21;5.70;99.90
60293;DHT22;52402;52.670;6.750;2023-05-19T04:17:47;5.80;99.90
60293;DHT22;52402;52.670;6.750;2023-05-19T04:20:13;5.80;99.90
60293;DHT22;52402;52.670;6.750;2023-05-19T04:22:38;5.90;99.90
60293;DHT22;52402;52.670;6.750;2023-05-19T04:25:04;5.90;99.90
60293;DHT22;52402;52.670;6.750;2023-05-19T04:27:30;6.00;99.90
60293;DHT22;52402;52.670;6.750;2023-05-19T04:29:56;6.00;99.90
60293;DHT22;52402;52.670;6.750;2023-05-19T04:32:22;6.00;99.90
60293;DHT22;52402;52.670;6.750;2023-05-19T04:34:48;6.10;99.90
60293;DHT22;52402;52.670;6.750;2023-05-19T04:37:14;6.20;99.90
60293;DHT22;52402;52.670;6.750;2023-05-19T04:39:46;6.20;99.90
60293;DHT22;52402;52.670;6.750;2023-05-19T04:42:12;6.30;99.90
60293;DHT22;52402;52.670;6.750;2023-05-19T04:44:38;6.30;99.90
60293;DHT22;52402;52.670;6.750;2023-05-19T04:47:07;6.40;99.90
60293;DHT22;52402;52.670;6.750;2023-05-19T04:49:36;6.40;99.90
60293;DHT22;52402;52.670;6.750;2023-05-19T04:52:09;6.60;99.90
60293;DHT22;52402;52.670;6.750;2023-05-19T04:54:38;6.60;99.90
60293;DHT22;52402;52.670;6.750;2023-05-19T04:57:05;6.60;99.90
60293;DHT22;52402;52.670;6.750;2023-05-19T04:59:37;6.70;99.90
60293;DHT22;52402;52.670;6.750;2023-05-19T05:02:02;6.70;99.90
60293;DHT22;52402;52.670;6.750;2023-05-19T05:04:28;6.80;99.90
60293;DHT22;52402;52.670;6.750;2023-05-19T05:06:54;6.80;99.90
60293;DHT22;52402;52.670;6.750;2023-05-19T05:09:19;6.90;99.90
60293;DHT22;52402;52.670;6.750;2023-05-19T05:11:46;7.00;99.90
60293;DHT22;52402;52.670;6.750;2023-05-19T05:14:11;7.10;99.90
60293;DHT22;52402;52.670;6.750;2023-05-19T05:16:37;7.10;99.90
60293;DHT22;52402;52.670;6.750;2023-05-19T05:19:03;7.20;99.90
60293;DHT22;52402;52.670;6.750;2023-05-19T05:21:29;7.30;99.90
60293;DHT22;52402;52.670;6.750;2023-05-19T05:23:56;7.40;99.90
60293;DHT22;52402;52.670;6.750;2023-05-19T05:26:22;7.40;99.90
60293;DHT22;52402;52.670;6.750;2023-05-19T05:28:50;7.50;99.90
60293;DHT22;52402;52.670;6.750;2023-05-19T05:31:16;7.50;99.90
60293;DHT22;52402;52.670;6.750;2023-05-19T05:33:42;7.60;99.90
60293;DHT22;52402;52.670;6.750;2023-05-19T05:36:08;7.60;99.90
60293;DHT22;52402;52.670;6.750;2023-05-19T05:38:34;7.60;99.90
60293;DHT22;52402;52.670;6.750;2023-05-19T05:41:00;7.70;99.90
60293;DHT22;52402;52.670;6.750;2023-05-19T05:43:27;7.80;99.90
60293;DHT22;52402;52.670;6.750;2023-05-19T05:45:53;8.00;99.90
60293;DHT22;52402;52.670;6.750;2023-05-19T05:48:19;8.10;99.90
60293;DHT22;52402;52.670;6.750;2023-05-19T05:50:45;8.20;99.90
60293;DHT22;52402;52.670;6.750;2023-05-19T05:53:19;8.20;99.90
60293;DHT22;52402;52.670;6.750;2023-05-19T05:55:46;8.40;99.90
60293;DHT22;52402;52.670;6.750;2023-05-19T05:58:14;8.40;99.90
60293;DHT22;52402;52.670;6.750;2023-05-19T06:00:42;8.50;99.90
60293;DHT22;52402;52.670;6.750;2023-05-19T06:03:08;8.60;99.90
60293;DHT22;52402;52.670;6.750;2023-05-19T06:05:34;8.70;99.90
60293;DHT22;52402;52.670;6.750;2023-05-19T06:08:00;8.80;99.90
60293;DHT22;52402;52.670;6.750;2023-05-19T06:10:27;8.80;99.90
60293;DHT22;52402;52.670;6.750;2023-05-19T06:12:53;9.00;99.90
60293;DHT22;52402;52.670;6.750;2023-05-19T06:15:19;9.00;99.90
60293;DHT22;52402;52.670;6.750;2023-05-19T06:17:45;9.20;99.90
60293;DHT22;52402;52.670;6.750;2023-05-19T06:20:11;9.20;99.90
60293;DHT22;52402;52.670;6.750;2023-05-19T06:22:37;9.30;99.90
60293;DHT22;52402;52.670;6.750;2023-05-19T06:25:03;9.40;99.90
60293;DHT22;52402;52.670;6.750;2023-05-19T06:27:29;9.50;99.90
60293;DHT22;52402;52.670;6.750;2023-05-19T06:29:55;9.60;99.90
60293;DHT22;52402;52.670;6.750;2023-05-19T06:32:20;9.70;99.90
60293;DHT22;52402;52.670;6.750;2023-05-19T06:34:46;9.90;99.90
60293;DHT22;52402;52.670;6.750;2023-05-19T06:37:21;9.90;99.90
60293;DHT22;52402;52.670;6.750;2023-05-19T06:39:51;10.10;99.90
60293;DHT22;52402;52.670;6.750;2023-05-19T06:42:21;10.20;99.90
60293;DHT22;52402;52.670;6.750;2023-05-19T06:44:51;10.30;99.90
60293;DHT22;52402;52.670;6.750;2023-05-19T06:47:17;10.40;99.90
60293;DHT22;52402;52.670;6.750;2023-05-19T06:49:43;10.50;99.90
60293;DHT22;52402;52.670;6.750;2023-05-19T06:52:10;10.60;99.90
60293;DHT22;52402;52.670;6.750;2023-05-19T06:54:36;10.70;99.90
60293;DHT22;52402;52.670;6.750;2023-05-19T06:57:02;10.90;99.90
60293;DHT22;52402;52.670;6.750;2023-05-19T06:59:28;11.00;99.90
60293;DHT22;52402;52.670;6.750;2023-05-19T07:01:54;11.10;99.90
60293;DHT22;52402;52.670;6.750;2023-05-19T07:04:20;11.20;99.90
60293;DHT22;52402;52.670;6.750;2023-05-19T07:06:45;11.40;99.90
60293;DHT22;52402;52.670;6.750;2023-05-19T07:09:11;11.50;99.90
60293;DHT22;52402;52.670;6.750;2023-05-19T07:11:36;11.60;99.90
60293;DHT22;52402;52.670;6.750;2023-05-19T07:14:02;11.70;99.90
60293;DHT22;52402;52.670;6.750;2023-05-19T07:16:28;11.90;99.90
60293;DHT22;52402;52.670;6.750;2023-05-19T07:18:53;12.00;99.90
60293;DHT22;52402;52.670;6.750;2023-05-19T07:21:19;12.10;99.90
60293;DHT22;52402;52.670;6.750;2023-05-19T07:23:45;12.20;99.90
60293;DHT22;52402;52.670;6.750;2023-05-19T07:26:10;12.30;99.90
60293;DHT22;52402;52.670;6.750;2023-05-19T07:28:36;12.40;99.90
60293;DHT22;52402;52.670;6.750;2023-05-19T07:31:02;12.50;99.90
60293;DHT22;52402;52.670;6.750;2023-05-19T07:33:27;12.70;99.90
60293;DHT22;52402;52.670;6.750;2023-05-19T07:35:53;12.80;99.90
60293;DHT22;52402;52.670;6.750;2023-05-19T07:38:19;13.00;99.90
60293;DHT22;52402;52.670;6.750;2023-05-19T07:40:44;13.20;99.90
60293;DHT22;52402;52.670;6.750;2023-05-19T07:43:10;13.30;99.90
60293;DHT22;52402;52.670;6.750;2023-05-19T07:45:36;13.40;99.90
60293;DHT22;52402;52.670;6.750;2023-05-19T07:48:02;13.50;99.90
60293;DHT22;52402;52.670;6.750;2023-05-19T07:50:28;13.60;99.90
60293;DHT22;52402;52.670;6.750;2023-05-19T07:52:53;13.80;99.90
60293;DHT22;52402;52.670;6.750;2023-05-19T07:55:19;13.90;99.90
60293;DHT22;52402;52.670;6.750;2023-05-19T07:57:48;14.00;99.90
60293;DHT22;52402;52.670;6.750;2023-05-19T08:00:14;14.10;99.90
60293;DHT22;52402;52.670;6.750;2023-05-19T08:02:40;14.20;99.90
60293;DHT22;52402;52.670;6.750;2023-05-19T08:05:06;14.30;99.90
60293;DHT22;52402;52.670;6.750;2023-05-19T08:07:31;14.40;99.90
60293;DHT22;52402;52.670;6.750;2023-05-19T08:09:57;14.50;99.90
60293;DHT22;52402;52.670;6.750;2023-05-19T08:12:23;14.60;99.90
60293;DHT22;52402;52.670;6.750;2023-05-19T08:14:48;14.80;99.90
60293;DHT22;52402;52.670;6.750;2023-05-19T08:17:14;14.90;99.90
60293;DHT22;52402;52.670;6.750;2023-05-19T08:19:39;15.00;99.90
60293;DHT22;52402;52.670;6.750;2023-05-19T08:22:05;15.10;99.90
60293;DHT22;52402;52.670;6.750;2023-05-19T08:24:30;15.20;99.90
60293;DHT22;52402;52.670;6.750;2023-05-19T08:26:58;15.20;99.90
60293;DHT22;52402;52.670;6.750;2023-05-19T08:29:23;15.30;99.90
60293;DHT22;52402;52.670;6.750;2023-05-19T08:31:49;15.40;99.90
60293;DHT22;52402;52.670;6.750;2023-05-19T08:34:14;15.50;99.90
60293;DHT22;52402;52.670;6.750;2023-05-19T08:36:40;15.60;99.90
60293;DHT22;52402;52.670;6.750;2023-05-19T08:39:06;15.60;99.90
60293;DHT22;52402;52.670;6.750;2023-05-19T08:41:31;15.70;99.90
60293;DHT22;52402;52.670;6.750;2023-05-19T08:43:57;15.80;99.90
60293;DHT22;52402;52.670;6.750;2023-05-19T08:46:24;15.90;99.90
60293;DHT22;52402;52.670;6.750;2023-05-19T08:48:53;16.10;99.90
60293;DHT22;52402;52.670;6.750;2023-05-19T08:51:44;16.20;99.90
60293;DHT22;52402;52.670;6.750;2023-05-19T08:54:15;16.30;99.90
60293;DHT22;52402;52.670;6.750;2023-05-19T08:56:43;16.30;99.90
60293;DHT22;52402;52.670;6.750;2023-05-19T08:59:12;16.40;99.90
60293;DHT22;52402;52.670;6.750;2023-05-19T09:01:41;16.40;99.90
60293;DHT22;52402;52.670;6.750;2023-05-19T09:04:07;16.50;99.90
60293;DHT22;52402;52.670;6.750;2023-05-19T09:06:33;16.50;99.90
60293;DHT22;52402;52.670;6.750;2023-05-19T09:08:59;16.70;99.90
60293;DHT22;52402;52.670;6.750;2023-05-19T09:11:24;16.70;99.90
60293;DHT22;52402;52.670;6.750;2023-05-19T09:13:50;16.80;99.90
60293;DHT22;52402;52.670;6.750;2023-05-19T09:16:16;16.60;99.90
60293;DHT22;52402;52.670;6.750;2023-05-19T09:19:02;16.90;99.90
60293;DHT22;52402;52.670;6.750;2023-05-19T09:21:31;17.00;99.90
60293;DHT22;52402;52.670;6.750;2023-05-19T09:24:04;17.10;99.90
60293;DHT22;52402;52.670;6.750;2023-05-19T09:26:40;17.30;99.90
60293;DHT22;52402;52.670;6.750;2023-05-19T09:29:16;17.30;99.90
60293;DHT22;52402;52.670;6.750;2023-05-19T09:31:49;17.20;99.60
60293;DHT22;52402;52.670;6.750;2023-05-19T09:34:15;17.40;99.90
60293;DHT22;52402;52.670;6.750;2023-05-19T09:36:41;17.30;99.60
60293;DHT22;52402;52.670;6.750;2023-05-19T09:39:19;17.30;98.70
60293;DHT22;52402;52.670;6.750;2023-05-19T09:41:46;17.50;99.20
60293;DHT22;52402;52.670;6.750;2023-05-19T09:44:33;17.70;99.90
60293;DHT22;52402;52.670;6.750;2023-05-19T09:46:58;17.80;99.90
60293;DHT22;52402;52.670;6.750;2023-05-19T09:49:26;18.00;99.90
60293;DHT22;52402;52.670;6.750;2023-05-19T09:51:54;18.00;99.90
60293;DHT22;52402;52.670;6.750;2023-05-19T09:54:21;18.10;99.30
60293;DHT22;52402;52.670;6.750;2023-05-19T09:57:06;18.10;98.50
60293;DHT22;52402;52.670;6.750;2023-05-19T09:59:32;18.30;99.20
60293;DHT22;52402;52.670;6.750;2023-05-19T10:01:58;18.40;98.60
60293;DHT22;52402;52.670;6.750;2023-05-19T10:04:28;18.50;99.60
60293;DHT22;52402;52.670;6.750;2023-05-19T10:06:56;18.50;97.10
60293;DHT22;52402;52.670;6.750;2023-05-19T10:09:25;18.50;99.20
60293;DHT22;52402;52.670;6.750;2023-05-19T10:11:57;18.50;97.80
60293;DHT22;52402;52.670;6.750;2023-05-19T10:14:24;18.40;96.40
60293;DHT22;52402;52.670;6.750;2023-05-19T10:16:51;18.20;97.70
60293;DHT22;52402;52.670;6.750;2023-05-19T10:19:22;18.00;97.50
60293;DHT22;52402;52.670;6.750;2023-05-19T10:21:48;18.00;96.40
60293;DHT22;52402;52.670;6.750;2023-05-19T10:24:14;18.00;97.10
60293;DHT22;52402;52.670;6.750;2023-05-19T10:29:27;18.20;97.10
60293;DHT22;52402;52.670;6.750;2023-05-19T10:31:56;18.40;98.30
60293;DHT22;52402;52.670;6.750;2023-05-19T10:39:54;19.00;97.30
60293;DHT22;52402;52.670;6.750;2023-05-19T10:42:52;19.10;95.40
60293;DHT22;52402;52.670;6.750;2023-05-19T10:45:23;19.40;97.50
60293;DHT22;52402;52.670;6.750;2023-05-19T10:47:51;19.60;96.10
60293;DHT22;52402;52.670;6.750;2023-05-19T10:50:17;19.30;94.80
60293;DHT22;52402;52.670;6.750;2023-05-19T10:52:42;19.60;95.10
60293;DHT22;52402;52.670;6.750;2023-05-19T10:55:11;19.80;96.50
60293;DHT22;52402;52.670;6.750;2023-05-19T10:57:54;20.00;95.90
60293;DHT22;52402;52.670;6.750;2023-05-19T11:00:27;20.20;95.70
60293;DHT22;52402;52.670;6.750;2023-05-19T11:02:52;20.60;95.40
60293;DHT22;52402;52.670;6.750;2023-05-19T11:05:27;20.80;96.60
60293;DHT22;52402;52.670;6.750;2023-05-19T11:07:55;20.90;94.60
60293;DHT22;52402;52.670;6.750;2023-05-19T11:10:24;21.10;94.70
60293;DHT22;52402;52.670;6.750;2023-05-19T11:12:51;20.70;93.30
60293;DHT22;52402;52.670;6.750;2023-05-19T11:15:16;20.50;93.50
60293;DHT22;52402;52.670;6.750;2023-05-19T11:17:46;20.60;94.90
60293;DHT22;52402;52.670;6.750;2023-05-19T11:20:23;20.70;95.00
60293;DHT22;52402;52.670;6.750;2023-05-19T11:23:06;20.80;94.20
60293;DHT22;52402;52.670;6.750;2023-05-19T11:25:50;20.90;94.90
60293;DHT22;52402;52.670;6.750;2023-05-19T11:28:18;20.90;94.40
60293;DHT22;52402;52.670;6.750;2023-05-19T11:30:46;20.70;92.60
60293;DHT22;52402;52.670;6.750;2023-05-19T11:33:14;20.90;92.90
60293;DHT22;52402;52.670;6.750;2023-05-19T11:35:45;20.70;92.50
60293;DHT22;52402;52.670;6.750;2023-05-19T11:38:12;21.00;95.10
60293;DHT22;52402;52.670;6.750;2023-05-19T11:40:40;21.30;95.10
60293;DHT22;52402;52.670;6.750;2023-05-19T11:43:06;21.40;92.30
60293;DHT22;52402;52.670;6.750;2023-05-19T11:45:32;21.60;92.00
60293;DHT22;52402;52.670;6.750;2023-05-19T11:47:58;21.90;94.10
60293;DHT22;52402;52.670;6.750;2023-05-19T11:50:24;21.60;91.50
60293;DHT22;52402;52.670;6.750;2023-05-19T11:52:51;21.70;91.50
60293;DHT22;52402;52.670;6.750;2023-05-19T11:55:18;21.60;92.60
60293;DHT22;52402;52.670;6.750;2023-05-19T11:57:57;21.60;92.60
60293;DHT22;52402;52.670;6.750;2023-05-19T12:00:27;22.00;92.40
60293;DHT22;52402;52.670;6.750;2023-05-19T12:02:54;22.00;91.20
60293;DHT22;52402;52.670;6.750;2023-05-19T12:05:24;22.00;90.90
60293;DHT22;52402;52.670;6.750;2023-05-19T12:07:51;21.80;90.60
60293;DHT22;52402;52.670;6.750;2023-05-19T12:10:27;21.80;90.70
60293;DHT22;52402;52.670;6.750;2023-05-19T12:12:53;22.10;91.10
60293;DHT22;52402;52.670;6.750;2023-05-19T12:15:20;22.20;91.60
60293;DHT22;52402;52.670;6.750;2023-05-19T12:17:57;22.30;90.30
60293;DHT22;52402;52.670;6.750;2023-05-19T12:20:23;22.50;90.70
60293;DHT22;52402;52.670;6.750;2023-05-19T12:22:50;22.20;85.20
60293;DHT22;52402;52.670;6.750;2023-05-19T12:25:17;22.00;85.80
60293;DHT22;52402;52.670;6.750;2023-05-19T12:27:43;22.30;91.90
60293;DHT22;52402;52.670;6.750;2023-05-19T12:30:09;22.60;90.70
60293;DHT22;52402;52.670;6.750;2023-05-19T12:32:35;23.00;91.20
60293;DHT22;52402;52.670;6.750;2023-05-19T12:35:04;23.00;89.80
60293;DHT22;52402;52.670;6.750;2023-05-19T12:37:31;22.40;86.80
60293;DHT22;52402;52.670;6.750;2023-05-19T12:39:59;22.10;87.70
60293;DHT22;52402;52.670;6.750;2023-05-19T12:42:28;21.40;84.80
60293;DHT22;52402;52.670;6.750;2023-05-19T12:44:56;21.20;88.50
60293;DHT22;52402;52.670;6.750;2023-05-19T12:47:32;21.40;90.50
60293;DHT22;52402;52.670;6.750;2023-05-19T12:52:25;21.00;90.40
60293;DHT22;52402;52.670;6.750;2023-05-19T12:55:05;21.40;91.30
60293;DHT22;52402;52.670;6.750;2023-05-19T12:57:35;21.70;91.60
60293;DHT22;52402;52.670;6.750;2023-05-19T13:00:02;21.90;84.60
60293;DHT22;52402;52.670;6.750;2023-05-19T13:02:41;22.40;90.20
60293;DHT22;52402;52.670;6.750;2023-05-19T13:05:19;22.70;85.70
60293;DHT22;52402;52.670;6.750;2023-05-19T13:07:57;23.10;90.40
60293;DHT22;52402;52.670;6.750;2023-05-19T13:10:24;23.40;90.90
60293;DHT22;52402;52.670;6.750;2023-05-19T13:12:52;23.50;85.30
60293;DHT22;52402;52.670;6.750;2023-05-19T13:15:18;23.60;88.20
60293;DHT22;52402;52.670;6.750;2023-05-19T13:17:44;23.50;86.80
60293;DHT22;52402;52.670;6.750;2023-05-19T13:20:11;23.30;82.50
60293;DHT22;52402;52.670;6.750;2023-05-19T13:22:37;23.40;82.80
60293;DHT22;52402;52.670;6.750;2023-05-19T13:25:03;23.10;85.20
60293;DHT22;52402;52.670;6.750;2023-05-19T13:27:28;23.60;88.30
60293;DHT22;52402;52.670;6.750;2023-05-19T13:29:54;23.00;81.60
60293;DHT22;52402;52.670;6.750;2023-05-19T13:32:20;22.80;79.00
60293;DHT22;52402;52.670;6.750;2023-05-19T13:34:45;23.00;80.80
60293;DHT22;52402;52.670;6.750;2023-05-19T13:37:11;22.90;83.60
60293;DHT22;52402;52.670;6.750;2023-05-19T13:39:37;22.70;85.20
60293;DHT22;52402;52.670;6.750;2023-05-19T13:42:03;22.10;82.90
60293;DHT22;52402;52.670;6.750;2023-05-19T13:44:29;21.70;79.80
60293;DHT22;52402;52.670;6.750;2023-05-19T13:46:57;21.80;87.80
60293;DHT22;52402;52.670;6.750;2023-05-19T13:49:23;22.00;87.00
60293;DHT22;52402;52.670;6.750;2023-05-19T13:51:49;22.40;88.40
60293;DHT22;52402;52.670;6.750;2023-05-19T13:54:16;22.90;86.50
60293;DHT22;52402;52.670;6.750;2023-05-19T13:56:43;23.30;86.10
60293;DHT22;52402;52.670;6.750;2023-05-19T13:59:11;23.60;88.50
60293;DHT22;52402;52.670;6.750;2023-05-19T14:01:37;23.80;86.30
60293;DHT22;52402;52.670;6.750;2023-05-19T14:04:02;24.10;88.50
60293;DHT22;52402;52.670;6.750;2023-05-19T14:06:28;24.30;85.30
60293;DHT22;52402;52.670;6.750;2023-05-19T14:08:54;24.60;85.80
60293;DHT22;52402;52.670;6.750;2023-05-19T14:11:19;24.70;81.30
60293;DHT22;52402;52.670;6.750;2023-05-19T14:13:49;24.30;83.90
60293;DHT22;52402;52.670;6.750;2023-05-19T14:16:15;23.60;81.60
60293;DHT22;52402;52.670;6.750;2023-05-19T14:18:41;23.70;77.80
60293;DHT22;52402;52.670;6.750;2023-05-19T14:21:07;23.60;81.20
60293;DHT22;52402;52.670;6.750;2023-05-19T14:23:33;23.60;83.50
60293;DHT22;52402;52.670;6.750;2023-05-19T14:25:58;23.60;83.80
60293;DHT22;52402;52.670;6.750;2023-05-19T14:28:24;23.40;82.90
60293;DHT22;52402;52.670;6.750;2023-05-19T14:30:50;22.90;82.50
60293;DHT22;52402;52.670;6.750;2023-05-19T14:33:16;23.00;82.80
60293;DHT22;52402;52.670;6.750;2023-05-19T14:35:42;23.30;81.90
60293;DHT22;52402;52.670;6.750;2023-05-19T14:38:07;23.40;82.10
60293;DHT22;52402;52.670;6.750;2023-05-19T14:40:35;23.10;80.00
60293;DHT22;52402;52.670;6.750;2023-05-19T14:43:01;22.90;80.10
60293;DHT22;52402;52.670;6.750;2023-05-19T14:45:27;22.30;78.80
60293;DHT22;52402;52.670;6.750;2023-05-19T14:47:53;22.10;82.70
60293;DHT22;52402;52.670;6.750;2023-05-19T14:50:19;22.00;78.80
60293;DHT22;52402;52.670;6.750;2023-05-19T14:52:44;22.00;78.40
60293;DHT22;52402;52.670;6.750;2023-05-19T14:55:10;22.40;80.70
60293;DHT22;52402;52.670;6.750;2023-05-19T14:57:35;22.90;84.30
60293;DHT22;52402;52.670;6.750;2023-05-19T15:00:01;23.20;82.20
60293;DHT22;52402;52.670;6.750;2023-05-19T15:02:27;23.20;80.60
60293;DHT22;52402;52.670;6.750;2023-05-19T15:04:52;22.70;82.60
60293;DHT22;52402;52.670;6.750;2023-05-19T15:07:18;22.10;81.10
60293;DHT22;52402;52.670;6.750;2023-05-19T15:09:43;21.80;79.70
60293;DHT22;52402;52.670;6.750;2023-05-19T15:12:09;21.50;83.00
60293;DHT22;52402;52.670;6.750;2023-05-19T15:14:35;21.50;84.80
60293;DHT22;52402;52.670;6.750;2023-05-19T15:17:00;21.30;82.90
60293;DHT22;52402;52.670;6.750;2023-05-19T15:19:26;21.50;86.70
60293;DHT22;52402;52.670;6.750;2023-05-19T15:21:51;21.90;87.20
60293;DHT22;52402;52.670;6.750;2023-05-19T15:24:17;21.90;81.30
60293;DHT22;52402;52.670;6.750;2023-05-19T15:26:43;22.20;83.40
60293;DHT22;52402;52.670;6.750;2023-05-19T15:29:09;22.60;81.60
60293;DHT22;52402;52.670;6.750;2023-05-19T15:31:35;23.00;85.40
60293;DHT22;52402;52.670;6.750;2023-05-19T15:34:00;23.20;84.30
60293;DHT22;52402;52.670;6.750;2023-05-19T15:36:26;23.30;79.90
60293;DHT22;52402;52.670;6.750;2023-05-19T15:38:51;23.80;82.40
60293;DHT22;52402;52.670;6.750;2023-05-19T15:41:17;23.60;79.90
60293;DHT22;52402;52.670;6.750;2023-05-19T15:43:42;23.20;76.40
60293;DHT22;52402;52.670;6.750;2023-05-19T15:46:10;23.00;80.50
60293;DHT22;52402;52.670;6.750;2023-05-19T15:48:37;22.70;83.30
60293;DHT22;52402;52.670;6.750;2023-05-19T15:51:03;22.50;84.10
60293;DHT22;52402;52.670;6.750;2023-05-19T15:53:29;22.30;81.90
60293;DHT22;52402;52.670;6.750;2023-05-19T15:55:55;22.00;76.10
60293;DHT22;52402;52.670;6.750;2023-05-19T15:58:22;22.40;82.40
60293;DHT22;52402;52.670;6.750;2023-05-19T16:00:47;22.90;82.60
60293;DHT22;52402;52.670;6.750;2023-05-19T16:03:13;23.30;79.30
60293;DHT22;52402;52.670;6.750;2023-05-19T16:05:39;23.50;80.30
60293;DHT22;52402;52.670;6.750;2023-05-19T16:08:04;23.00;78.00
60293;DHT22;52402;52.670;6.750;2023-05-19T16:10:30;22.70;77.30
60293;DHT22;52402;52.670;6.750;2023-05-19T16:12:55;22.40;80.70